Time;durP1;ratioP1;P1;durP2;ratioP2;P2;SDS_P1;SDS_P2;PMS_P1;PMS_P2;Temp;Humidity;BMP_temperature;BMP_pressure;BME280_temperature;BME280_humidity;BME280_pressure;Samples;Min_cycle;Max_cycle;Signal;HPM_P1;HPM_P2
2022/09/22 00:00:58;;;;;;;2.27;1.80;;;7.90;99.90;;;;;;5031590;28;20218;-85
2022/09/22 00:03:25;;;;;;;2.70;1.77;;;8.00;99.90;;;;;;5031129;28;20175;-85
2022/09/22 00:05:59;;;;;;;1.70;1.70;;;8.00;99.90;;;;;;5029714;28;20184;-85
2022/09/22 00:08:26;;;;;;;2.20;2.10;;;8.00;99.90;;;;;;5030906;28;20171;-83
2022/09/22 00:11:22;;;;;;;1.80;1.70;;;8.00;99.90;;;;;;5031233;28;20171;-85
2022/09/22 00:13:50;;;;;;;1.97;1.87;;;7.90;99.90;;;;;;5029901;28;20702;-84
2022/09/22 00:16:22;;;;;;;2.10;2.00;;;7.80;99.90;;;;;;5030745;28;20178;-84
2022/09/22 00:18:48;;;;;;;2.17;1.80;;;7.90;99.90;;;;;;5030775;28;20156;-83
2022/09/22 00:21:17;;;;;;;2.03;1.83;;;7.80;99.90;;;;;;5031429;28;20280;-84
2022/09/22 00:23:43;;;;;;;2.07;1.70;;;7.80;99.90;;;;;;5056024;28;20164;-84
2022/09/22 00:26:12;;;;;;;2.00;1.90;;;7.80;99.90;;;;;;5043105;28;20182;-84
2022/09/22 00:28:40;;;;;;;2.10;2.00;;;7.80;99.90;;;;;;5031119;28;20178;-83
2022/09/22 00:31:12;;;;;;;1.93;1.60;;;7.70;99.90;;;;;;5029318;28;20180;-82
2022/09/22 00:33:40;;;;;;;1.80;1.70;;;7.80;99.90;;;;;;5030555;28;20183;-83
2022/09/22 00:36:06;;;;;;;1.93;1.83;;;7.80;99.90;;;;;;5030199;28;20216;-85
2022/09/22 00:38:32;;;;;;;2.00;1.90;;;7.80;99.90;;;;;;5030811;28;20183;-84
2022/09/22 00:41:00;;;;;;;1.60;1.50;;;7.90;99.90;;;;;;5031056;28;20244;-84
2022/09/22 00:43:29;;;;;;;1.93;1.63;;;7.80;99.90;;;;;;5029042;28;20171;-86
2022/09/22 00:46:08;;;;;;;1.60;1.60;;;7.70;99.90;;;;;;5031017;28;20231;-83
2022/09/22 00:48:38;;;;;;;2.00;1.90;;;7.60;99.90;;;;;;5028940;28;20192;-83
2022/09/22 00:51:07;;;;;;;1.87;1.77;;;7.60;99.90;;;;;;5030340;28;20163;-84
2022/09/22 00:53:34;;;;;;;1.90;1.80;;;7.60;99.90;;;;;;5030284;28;20640;-84
2022/09/22 00:56:19;;;;;;;2.50;1.70;;;7.50;99.90;;;;;;5030322;28;20178;-84
2022/09/22 00:59:08;;;;;;;1.50;1.50;;;7.50;99.90;;;;;;5038433;28;20253;-85
2022/09/22 01:01:35;;;;;;;1.87;1.77;;;7.50;99.90;;;;;;5036500;28;20207;-85
2022/09/22 01:04:02;;;;;;;1.67;1.57;;;7.60;99.90;;;;;;5030255;28;20233;-84
2022/09/22 01:06:28;;;;;;;1.77;1.70;;;7.60;99.90;;;;;;5028829;28;20193;-83
2022/09/22 01:08:57;;;;;;;1.53;1.53;;;7.60;99.90;;;;;;5030105;28;20260;-84
2022/09/22 01:11:25;;;;;;;1.37;1.37;;;7.60;99.90;;;;;;5030497;28;20179;-83
2022/09/22 01:14:11;;;;;;;1.97;1.87;;;7.60;99.90;;;;;;5030288;28;20168;-84
2022/09/22 01:17:11;;;;;;;1.90;1.80;;;7.60;99.90;;;;;;5030393;28;20588;-85
2022/09/22 01:19:49;;;;;;;1.63;1.60;;;7.60;99.90;;;;;;5032074;28;20660;-86
2022/09/22 01:22:18;;;;;;;2.90;1.60;;;7.60;99.90;;;;;;5034528;28;20661;-85
2022/09/22 01:25:15;;;;;;;2.43;1.77;;;7.60;99.90;;;;;;5034208;28;20259;-84
2022/09/22 01:28:18;;;;;;;1.57;1.57;;;7.60;99.90;;;;;;5034232;28;20200;-85
2022/09/22 01:31:11;;;;;;;1.67;1.57;;;7.50;99.90;;;;;;5033725;28;20550;-84
2022/09/22 01:34:10;;;;;;;1.73;1.63;;;7.50;99.90;;;;;;5034475;28;20170;-85
2022/09/22 01:36:44;;;;;;;1.90;1.80;;;7.50;99.90;;;;;;5034065;28;20188;-83
2022/09/22 01:39:23;;;;;;;1.80;1.70;;;7.50;99.90;;;;;;5032383;28;20310;-85
2022/09/22 01:42:02;;;;;;;1.90;1.80;;;7.50;99.90;;;;;;5033876;28;20627;-86
2022/09/22 01:44:31;;;;;;;2.00;1.90;;;7.50;99.90;;;;;;5033956;28;20222;-85
2022/09/22 01:47:18;;;;;;;1.87;1.87;;;7.50;99.90;;;;;;5034203;28;20153;-85
2022/09/22 01:49:51;;;;;;;1.80;1.70;;;7.50;99.90;;;;;;5033595;28;20174;-86
2022/09/22 01:52:25;;;;;;;1.50;1.50;;;7.40;99.90;;;;;;5033793;28;20173;-85
2022/09/22 01:54:59;;;;;;;1.63;1.53;;;7.30;99.90;;;;;;5033517;28;20163;-85
2022/09/22 01:57:48;;;;;;;1.60;1.60;;;7.40;99.90;;;;;;5052422;28;20247;-85
2022/09/22 02:00:15;;;;;;;2.30;1.60;;;7.40;99.90;;;;;;5042979;28;20232;-85
2022/09/22 02:02:41;;;;;;;1.60;1.60;;;7.50;99.90;;;;;;5034435;28;20220;-83
2022/09/22 02:05:17;;;;;;;1.90;1.80;;;7.40;99.90;;;;;;5033524;28;20175;-84
2022/09/22 02:07:49;;;;;;;1.87;1.80;;;7.50;99.90;;;;;;5033331;28;20164;-85
2022/09/22 02:10:19;;;;;;;2.20;1.87;;;7.40;99.90;;;;;;5033122;28;20254;-83
2022/09/22 02:12:48;;;;;;;1.60;1.50;;;7.40;99.90;;;;;;5032927;28;20265;-82
2022/09/22 02:18:08;;;;;;;1.90;1.80;;;7.40;99.90;;;;;;5033240;28;20705;-83
2022/09/22 02:20:34;;;;;;;1.90;1.80;;;7.30;99.90;;;;;;5033045;28;20204;-83
2022/09/22 02:23:00;;;;;;;2.13;1.90;;;7.30;99.90;;;;;;5033162;28;20543;-85
2022/09/22 02:25:27;;;;;;;2.10;1.90;;;7.30;99.90;;;;;;5032694;28;20653;-84
2022/09/22 02:27:56;;;;;;;1.90;1.80;;;7.20;99.90;;;;;;5032789;28;20222;-85
2022/09/22 02:30:22;;;;;;;2.93;1.60;;;7.20;99.90;;;;;;5032890;28;20189;-83
2022/09/22 02:32:51;;;;;;;1.67;1.60;;;7.20;99.90;;;;;;5032799;28;20649;-83
2022/09/22 02:35:17;;;;;;;4.23;1.97;;;7.10;99.90;;;;;;5031655;28;20184;-84
2022/09/22 02:38:12;;;;;;;1.90;1.80;;;7.20;99.90;;;;;;5032538;28;20218;-84
2022/09/22 02:40:50;;;;;;;1.93;1.83;;;7.20;99.90;;;;;;5032512;28;20602;-85
2022/09/22 02:43:37;;;;;;;2.23;1.90;;;7.20;99.90;;;;;;5041458;28;20190;-82
2022/09/22 02:46:30;;;;;;;2.03;1.90;;;7.20;99.90;;;;;;5041126;28;20224;-85
2022/09/22 02:49:06;;;;;;;2.10;2.00;;;7.20;99.90;;;;;;5032489;28;20527;-82
2022/09/22 02:51:33;;;;;;;2.50;2.30;;;7.30;99.90;;;;;;5031176;28;20242;-85
2022/09/22 02:54:00;;;;;;;2.27;2.17;;;7.20;99.90;;;;;;5032500;28;20186;-85
2022/09/22 02:56:26;;;;;;;1.87;1.77;;;7.20;99.90;;;;;;5032499;28;20293;-83
2022/09/22 02:58:52;;;;;;;2.07;1.87;;;7.20;99.90;;;;;;5031177;28;20182;-86
2022/09/22 03:01:18;;;;;;;1.97;1.87;;;7.20;99.90;;;;;;5032766;28;20206;-83
2022/09/22 03:03:44;;;;;;;1.80;1.70;;;7.20;99.90;;;;;;5034092;28;20335;-82
2022/09/22 03:06:10;;;;;;;2.07;1.97;;;7.20;99.90;;;;;;5032619;28;20178;-83
2022/09/22 03:08:36;;;;;;;2.20;2.10;;;7.10;99.90;;;;;;5030729;28;20183;-82
2022/09/22 03:11:02;;;;;;;2.63;1.80;;;7.20;99.90;;;;;;5030889;28;20231;-83
2022/09/22 03:13:27;;;;;;;2.13;1.73;;;7.10;99.90;;;;;;5032060;28;20509;-83
2022/09/22 03:15:53;;;;;;;2.00;1.90;;;7.10;99.90;;;;;;5030727;28;20206;-82
2022/09/22 03:18:19;;;;;;;2.13;2.00;;;7.10;99.90;;;;;;5030664;28;20584;-84
2022/09/22 03:20:45;;;;;;;2.13;1.80;;;7.20;99.90;;;;;;5032757;28;20220;-85
2022/09/22 03:23:11;;;;;;;1.93;1.80;;;7.10;99.90;;;;;;5031220;28;20179;-83
2022/09/22 03:25:37;;;;;;;1.97;1.70;;;7.10;99.90;;;;;;5031739;28;20707;-83
2022/09/22 03:28:03;;;;;;;2.67;1.90;;;7.20;99.90;;;;;;5031857;28;20532;-84
2022/09/22 03:30:29;;;;;;;1.80;1.80;;;7.30;99.90;;;;;;5047603;28;20179;-83
2022/09/22 03:32:55;;;;;;;2.10;2.00;;;7.20;99.90;;;;;;5057202;28;20169;-87
2022/09/22 03:35:21;;;;;;;1.97;1.83;;;7.20;99.90;;;;;;5052527;28;20171;-83
2022/09/22 03:37:47;;;;;;;2.13;1.90;;;7.20;99.90;;;;;;5042276;28;20190;-84
2022/09/22 03:40:13;;;;;;;2.50;1.93;;;7.20;99.90;;;;;;5033648;28;20197;-85
2022/09/22 03:42:39;;;;;;;3.60;2.10;;;7.20;99.90;;;;;;5030822;28;20256;-85
2022/09/22 03:45:05;;;;;;;2.27;1.63;;;7.20;99.90;;;;;;5031288;28;20230;-84
2022/09/22 03:47:31;;;;;;;2.50;2.30;;;7.20;99.90;;;;;;5031356;28;20527;-85
2022/09/22 03:49:57;;;;;;;2.10;2.00;;;7.20;99.90;;;;;;5031282;28;20680;-84
2022/09/22 03:52:23;;;;;;;3.50;2.00;;;7.10;99.90;;;;;;5030110;28;20176;-84
2022/09/22 03:54:50;;;;;;;3.07;2.00;;;7.20;99.90;;;;;;5029794;28;20271;-83
2022/09/22 03:57:17;;;;;;;2.03;1.93;;;7.20;99.90;;;;;;5031132;28;20182;-83
2022/09/22 03:59:42;;;;;;;2.30;2.20;;;7.20;99.90;;;;;;5031247;28;20282;-83
2022/09/22 04:02:08;;;;;;;4.20;2.50;;;7.20;99.90;;;;;;5029644;28;20655;-83
2022/09/22 04:04:34;;;;;;;4.57;2.53;;;7.20;99.90;;;;;;5029838;28;20714;-83
2022/09/22 04:07:00;;;;;;;2.87;2.63;;;7.10;99.90;;;;;;5030883;28;20680;-85
2022/09/22 04:09:25;;;;;;;4.23;2.40;;;7.10;99.90;;;;;;5029614;28;20183;-85
2022/09/22 04:11:51;;;;;;;7.67;2.70;;;7.10;99.90;;;;;;5031037;28;20176;-85
2022/09/22 04:14:17;;;;;;;2.70;2.50;;;7.10;99.90;;;;;;5030742;28;20203;-84
2022/09/22 04:16:44;;;;;;;3.50;2.73;;;7.00;99.90;;;;;;5031185;28;20225;-85
2022/09/22 04:19:11;;;;;;;2.50;2.30;;;7.10;99.90;;;;;;5031098;28;20236;-85
2022/09/22 04:21:37;;;;;;;2.67;2.53;;;7.20;99.90;;;;;;5030819;28;20208;-83
2022/09/22 04:24:10;;;;;;;3.23;2.93;;;7.20;99.90;;;;;;5030978;28;20180;-85
2022/09/22 04:26:37;;;;;;;3.40;3.07;;;7.20;99.90;;;;;;5032225;28;20170;-83
2022/09/22 04:29:03;;;;;;;2.57;2.37;;;7.30;99.90;;;;;;5044316;28;20200;-83
2022/09/22 04:31:29;;;;;;;4.27;2.63;;;7.20;99.90;;;;;;5032451;28;20183;-85
2022/09/22 04:33:55;;;;;;;10.77;2.70;;;7.20;99.90;;;;;;5030723;28;20182;-85
2022/09/22 04:36:21;;;;;;;2.60;2.40;;;7.20;99.90;;;;;;5030845;28;20205;-86
2022/09/22 04:38:46;;;;;;;4.13;2.67;;;7.10;99.90;;;;;;5030605;28;20169;-84
2022/09/22 04:41:12;;;;;;;6.17;3.03;;;7.20;99.90;;;;;;5030669;28;20199;-85
2022/09/22 04:43:38;;;;;;;5.70;2.67;;;7.20;99.90;;;;;;5033438;28;20233;-85
2022/09/22 04:46:04;;;;;;;2.90;2.60;;;7.10;99.90;;;;;;5033183;28;20222;-83
2022/09/22 04:48:30;;;;;;;7.80;2.70;;;7.10;99.90;;;;;;5030523;28;20171;-85
2022/09/22 04:50:56;;;;;;;4.70;2.77;;;7.00;99.90;;;;;;5030154;28;20527;-85
2022/09/22 04:53:22;;;;;;;3.33;2.97;;;7.10;99.90;;;;;;5028427;28;20183;-85
2022/09/22 04:55:49;;;;;;;3.23;2.97;;;7.10;99.90;;;;;;5029895;28;20240;-85
2022/09/22 04:58:15;;;;;;;2.23;2.10;;;7.10;99.90;;;;;;5030335;28;20660;-86
2022/09/22 05:00:41;;;;;;;2.73;2.53;;;7.10;99.90;;;;;;5028868;28;20222;-84
2022/09/22 05:03:09;;;;;;;2.80;2.30;;;7.10;99.90;;;;;;5030233;28;20946;-83
2022/09/22 05:05:35;;;;;;;4.23;2.60;;;7.30;99.90;;;;;;5050828;28;20333;-86
2022/09/22 05:08:01;;;;;;;2.60;2.40;;;7.40;99.90;;;;;;5052747;28;20221;-83
2022/09/22 05:10:31;;;;;;;4.93;3.90;;;7.50;99.90;;;;;;5035699;28;20714;-85
2022/09/22 05:12:57;;;;;;;5.30;3.60;;;7.60;99.90;;;;;;5035288;28;20201;-85
2022/09/22 05:15:24;;;;;;;6.80;4.07;;;7.60;99.90;;;;;;5033118;28;20258;-86
2022/09/22 05:17:52;;;;;;;6.53;3.57;;;7.60;99.90;;;;;;5032286;28;20164;-84
2022/09/22 05:20:20;;;;;;;5.13;3.20;;;7.70;99.90;;;;;;5034046;28;20396;-85
2022/09/22 05:22:46;;;;;;;9.67;3.30;;;7.70;99.90;;;;;;5030213;28;20171;-85
2022/09/22 05:25:16;;;;;;;4.50;3.50;;;7.60;99.90;;;;;;5029927;28;20176;-84
2022/09/22 05:27:55;;;;;;;7.30;3.40;;;7.60;99.90;;;;;;5030060;28;20177;-86
2022/09/22 05:30:24;;;;;;;7.67;3.83;;;7.60;99.90;;;;;;5029843;28;20178;-84
2022/09/22 05:32:50;;;;;;;5.80;4.00;;;7.60;99.90;;;;;;5028565;28;20185;-84
2022/09/22 05:35:20;;;;;;;5.97;3.50;;;7.60;99.90;;;;;;5028518;28;20562;-84
2022/09/22 05:37:48;;;;;;;4.07;3.67;;;7.60;99.90;;;;;;5028782;28;20632;-83
2022/09/22 05:40:15;;;;;;;5.87;3.80;;;7.60;99.90;;;;;;5028479;28;20218;-85
2022/09/22 05:42:46;;;;;;;6.43;3.63;;;7.60;99.90;;;;;;5032601;28;20176;-86
2022/09/22 05:45:13;;;;;;;4.40;3.83;;;7.60;99.90;;;;;;5031475;28;20231;-84
2022/09/22 05:47:39;;;;;;;4.40;4.03;;;7.60;99.90;;;;;;5030292;28;20177;-84
2022/09/22 05:50:06;;;;;;;8.63;3.93;;;7.70;99.90;;;;;;5030003;28;20179;-83
2022/09/22 05:52:32;;;;;;;6.00;4.03;;;7.70;99.90;;;;;;5030454;28;20171;-86
2022/09/22 05:54:58;;;;;;;9.13;3.60;;;7.70;99.90;;;;;;5030350;28;20222;-87
2022/09/22 05:57:26;;;;;;;6.33;4.53;;;7.70;99.90;;;;;;5029487;28;20219;-85
2022/09/22 05:59:52;;;;;;;6.97;4.00;;;7.80;99.90;;;;;;5028880;28;20518;-85
2022/09/22 06:02:18;;;;;;;9.67;5.00;;;7.80;99.90;;;;;;5029688;28;20651;-84
2022/09/22 06:04:44;;;;;;;5.23;3.60;;;7.80;99.90;;;;;;5029802;28;20169;-83
2022/09/22 06:07:10;;;;;;;5.17;4.03;;;7.80;99.90;;;;;;5033435;28;20185;-85
2022/09/22 06:09:36;;;;;;;5.77;3.80;;;7.90;99.90;;;;;;5031984;28;20215;-84
2022/09/22 06:12:02;;;;;;;4.73;3.57;;;8.00;99.90;;;;;;5033549;28;20257;-84
2022/09/22 06:14:28;;;;;;;5.40;4.03;;;8.20;99.90;;;;;;5033223;28;20175;-85
2022/09/22 06:16:54;;;;;;;7.77;3.60;;;8.40;99.90;;;;;;5032166;28;20287;-84
2022/09/22 06:19:22;;;;;;;6.47;4.10;;;8.50;99.90;;;;;;5032961;28;20209;-85
2022/09/22 06:21:49;;;;;;;8.23;4.00;;;8.60;99.90;;;;;;5033135;28;20589;-83
2022/09/22 06:24:15;;;;;;;4.47;2.83;;;8.70;99.90;;;;;;5033363;28;20176;-84
2022/09/22 06:26:41;;;;;;;2.50;2.30;;;8.70;99.90;;;;;;5034818;28;20219;-83
2022/09/22 06:29:08;;;;;;;2.77;2.47;;;8.90;99.90;;;;;;5031582;28;20660;-85
2022/09/22 06:31:36;;;;;;;3.00;2.53;;;8.90;99.90;;;;;;5032994;28;20180;-85
2022/09/22 06:34:02;;;;;;;2.20;2.00;;;9.00;99.90;;;;;;5033039;28;20590;-83
2022/09/22 06:36:30;;;;;;;2.63;2.00;;;8.90;99.90;;;;;;5033412;28;20180;-84
2022/09/22 06:39:00;;;;;;;2.80;2.30;;;9.00;99.70;;;;;;5040934;28;20179;-83
2022/09/22 06:41:31;;;;;;;6.00;2.77;;;9.00;99.90;;;;;;5055644;28;20586;-85
2022/09/22 06:43:57;;;;;;;4.00;2.40;;;9.10;99.90;;;;;;5036308;28;20170;-85
2022/09/22 06:46:29;;;;;;;4.03;2.40;;;9.20;99.60;;;;;;5033779;28;20180;-84
2022/09/22 06:48:56;;;;;;;3.00;2.10;;;9.30;99.80;;;;;;5033585;28;20188;-86
2022/09/22 06:51:32;;;;;;;2.70;2.37;;;9.40;99.70;;;;;;5034139;28;20260;-88
2022/09/22 06:54:03;;;;;;;6.37;2.10;;;9.50;99.00;;;;;;5033297;28;20184;-84
2022/09/22 06:56:33;;;;;;;3.23;2.27;;;9.60;98.90;;;;;;5033438;28;20173;-85
2022/09/22 06:58:59;;;;;;;2.40;2.30;;;9.70;98.50;;;;;;5032753;28;20187;-84
2022/09/22 07:01:27;;;;;;;2.47;2.27;;;9.60;98.70;;;;;;5031645;28;20231;-85
2022/09/22 07:03:53;;;;;;;1.87;1.77;;;9.70;98.50;;;;;;5035652;28;20191;-83
2022/09/22 07:06:19;;;;;;;2.07;1.97;;;9.70;98.40;;;;;;5034953;28;20589;-84
2022/09/22 07:08:47;;;;;;;3.13;1.70;;;9.80;98.40;;;;;;5034795;28;20547;-86
2022/09/22 07:11:16;;;;;;;2.50;2.13;;;10.00;97.70;;;;;;5033810;28;20172;-84
2022/09/22 07:13:44;;;;;;;5.73;2.47;;;9.90;98.30;;;;;;5032012;28;20188;-87
2022/09/22 07:16:16;;;;;;;2.93;2.73;;;10.10;97.90;;;;;;5032540;28;20201;-84
2022/09/22 07:18:53;;;;;;;7.80;2.30;;;10.20;97.70;;;;;;5032372;28;20177;-86
2022/09/22 07:21:26;;;;;;;2.40;2.20;;;10.30;97.60;;;;;;5031721;28;20239;-84
2022/09/22 07:23:56;;;;;;;2.83;2.03;;;10.40;97.50;;;;;;5031357;28;20252;-84
2022/09/22 07:26:29;;;;;;;6.23;2.27;;;10.50;98.80;;;;;;5032810;28;20172;-85
2022/09/22 07:28:58;;;;;;;3.00;2.37;;;10.60;98.10;;;;;;5031508;28;20191;-85
2022/09/22 07:31:26;;;;;;;2.90;2.40;;;10.70;98.00;;;;;;5030947;28;20183;-86
2022/09/22 07:33:53;;;;;;;2.03;1.93;;;10.70;97.80;;;;;;5032501;28;20174;-86
2022/09/22 07:36:24;;;;;;;3.37;2.10;;;10.80;97.50;;;;;;5032419;28;20197;-83
2022/09/22 07:38:53;;;;;;;2.53;2.30;;;10.80;97.40;;;;;;5032721;28;20182;-83
2022/09/22 07:41:26;;;;;;;2.42;2.22;;;10.80;97.80;;;;;;5033093;28;20445;-83
2022/09/22 07:45:11;;;;;;;2.70;2.50;;;10.90;97.60;;;;;;5032170;28;20159;-85
2022/09/22 07:46:42;;;;;;;3.30;2.67;;;11.00;97.50;;;;;;5032284;28;20201;-86
2022/09/22 07:49:08;;;;;;;2.60;2.40;;;11.10;97.40;;;;;;5032579;28;20173;-85
2022/09/22 07:51:34;;;;;;;2.73;2.53;;;11.10;97.00;;;;;;5030996;28;20198;-83
2022/09/22 07:54:06;;;;;;;3.20;2.10;;;11.20;97.10;;;;;;5030677;28;20177;-86
2022/09/22 07:56:40;;;;;;;2.90;2.10;;;11.40;97.10;;;;;;5032029;28;20180;-86
2022/09/22 07:59:08;;;;;;;2.10;2.00;;;11.50;96.90;;;;;;5031999;28;20177;-83
2022/09/22 08:01:36;;;;;;;3.80;2.30;;;11.60;96.60;;;;;;5036052;28;20272;-83
2022/09/22 08:04:03;;;;;;;3.17;1.83;;;11.60;96.10;;;;;;5035928;28;20180;-84
2022/09/22 08:06:30;;;;;;;2.10;2.00;;;11.70;95.90;;;;;;5031938;28;20168;-83
2022/09/22 08:08:57;;;;;;;1.70;1.60;;;11.80;95.80;;;;;;5030260;28;20189;-85
2022/09/22 08:11:25;;;;;;;2.60;2.00;;;11.80;95.90;;;;;;5031621;28;20180;-83
2022/09/22 08:14:03;;;;;;;2.03;1.83;;;11.80;95.60;;;;;;5032947;28;20168;-86
2022/09/22 08:16:33;;;;;;;1.93;1.83;;;11.80;95.50;;;;;;5035018;28;20172;-83
2022/09/22 08:19:01;;;;;;;2.27;2.00;;;11.90;95.50;;;;;;5055799;28;20241;-85
2022/09/22 08:21:34;;;;;;;2.90;2.00;;;12.00;95.50;;;;;;5050539;28;20265;-83
2022/09/22 08:24:08;;;;;;;2.03;1.83;;;12.10;95.00;;;;;;5035643;28;20160;-84
2022/09/22 08:26:35;;;;;;;2.37;1.80;;;12.20;94.80;;;;;;5031726;28;20218;-86
2022/09/22 08:29:02;;;;;;;2.43;2.00;;;12.20;94.70;;;;;;5030944;28;20169;-86
2022/09/22 08:31:28;;;;;;;2.50;2.13;;;12.30;94.70;;;;;;5029788;28;20203;-86
2022/09/22 08:33:54;;;;;;;3.00;2.80;;;12.40;95.00;;;;;;5031207;28;20176;-86
2022/09/22 08:36:26;;;;;;;2.60;2.40;;;12.50;94.80;;;;;;5030884;28;20172;-85
2022/09/22 08:38:53;;;;;;;4.33;2.73;;;12.60;95.00;;;;;;5031078;28;20161;-86
2022/09/22 08:41:41;;;;;;;3.60;2.93;;;12.70;95.40;;;;;;5031207;28;20217;-84
2022/09/22 08:44:10;;;;;;;3.70;2.70;;;12.70;95.40;;;;;;5031011;28;20578;-86
2022/09/22 08:46:42;;;;;;;5.30;2.90;;;12.80;95.30;;;;;;5029555;28;20188;-85
2022/09/22 08:52:39;;;;;;;3.27;2.70;;;12.90;95.00;;;;;;5030703;28;20195;-84
2022/09/22 08:55:17;;;;;;;4.87;3.13;;;12.90;94.80;;;;;;5030768;28;20302;-84
2022/09/22 08:58:00;;;;;;;4.97;3.63;;;13.00;94.90;;;;;;5030549;28;20157;-84
2022/09/22 09:00:34;;;;;;;2.83;2.63;;;13.10;94.90;;;;;;5030848;28;20204;-84
2022/09/22 09:03:03;;;;;;;4.13;3.00;;;13.20;94.40;;;;;;5030779;28;20256;-84
2022/09/22 09:05:59;;;;;;;5.70;3.20;;;13.30;94.80;;;;;;5031225;28;20210;-86
2022/09/22 09:09:00;;;;;;;5.97;2.73;;;13.50;94.50;;;;;;5030494;28;20153;-85
2022/09/22 09:12:04;;;;;;;3.03;2.70;;;13.60;94.00;;;;;;5030470;28;20522;-84
2022/09/22 09:15:00;;;;;;;5.03;2.70;;;13.70;93.80;;;;;;5030702;28;20164;-84
2022/09/22 09:17:32;;;;;;;2.90;2.60;;;13.80;94.20;;;;;;5030972;28;20165;-84
2022/09/22 09:20:16;;;;;;;3.93;2.40;;;13.90;94.00;;;;;;5030634;28;20214;-83
2022/09/22 09:22:54;;;;;;;3.97;2.67;;;14.00;94.10;;;;;;5029144;28;20169;-85
2022/09/22 09:25:34;;;;;;;2.97;2.33;;;14.20;93.50;;;;;;5030402;28;20168;-83
2022/09/22 09:28:05;;;;;;;2.10;2.00;;;14.30;93.00;;;;;;5030635;28;20157;-86
2022/09/22 09:30:53;;;;;;;2.57;1.97;;;14.30;92.90;;;;;;5030540;28;20175;-85
2022/09/22 09:33:39;;;;;;;2.50;2.33;;;14.60;93.30;;;;;;5028839;28;20618;-86
2022/09/22 09:36:15;;;;;;;2.60;1.80;;;14.60;93.30;;;;;;5030852;28;20165;-85
2022/09/22 09:38:50;;;;;;;2.13;1.90;;;14.70;92.00;;;;;;5030678;28;20172;-85
2022/09/22 09:41:21;;;;;;;2.70;1.80;;;14.90;91.30;;;;;;5033105;28;20201;-85
2022/09/22 09:43:47;;;;;;;2.53;2.20;;;15.00;91.60;;;;;;5034418;28;20589;-85
2022/09/22 09:46:51;;;;;;;2.60;2.30;;;15.10;92.20;;;;;;5032279;28;20711;-85
2022/09/22 09:49:20;;;;;;;2.67;2.47;;;15.30;92.50;;;;;;5030459;28;20713;-85
2022/09/22 09:51:52;;;;;;;2.10;2.00;;;15.40;92.50;;;;;;5035987;28;20198;-84
2022/09/22 09:54:19;;;;;;;4.33;2.47;;;15.50;92.20;;;;;;5039274;28;20501;-88
2022/09/22 09:57:03;;;;;;;1.90;1.80;;;15.70;92.20;;;;;;5050900;28;20173;-86
2022/09/22 10:02:18;;;;;;;2.33;1.73;;;16.00;90.50;;;;;;5042227;28;20203;-85
2022/09/22 10:04:57;;;;;;;1.63;1.53;;;16.30;90.40;;;;;;5035415;28;20176;-84
2022/09/22 10:07:39;;;;;;;1.70;1.60;;;16.60;90.90;;;;;;5033428;28;20165;-83
2022/09/22 10:10:32;;;;;;;1.60;1.50;;;16.80;90.10;;;;;;5032361;28;20180;-84
2022/09/22 10:13:03;;;;;;;1.70;1.60;;;17.10;89.40;;;;;;5034292;28;20172;-84
2022/09/22 10:15:31;;;;;;;1.93;1.37;;;17.20;86.80;;;;;;5033455;28;20208;-83
2022/09/22 10:17:57;;;;;;;1.20;1.20;;;17.20;85.70;;;;;;5033287;28;20187;-84
2022/09/22 10:20:25;;;;;;;2.63;1.47;;;17.10;85.20;;;;;;5031650;28;20212;-84
2022/09/22 10:22:51;;;;;;;1.77;1.43;;;17.10;84.80;;;;;;5031792;28;20180;-84
2022/09/22 10:25:30;;;;;;;1.23;1.23;;;17.10;84.90;;;;;;5033238;28;20701;-84
2022/09/22 10:28:18;;;;;;;1.67;1.40;;;16.90;85.20;;;;;;5033254;28;20164;-83
2022/09/22 10:30:59;;;;;;;1.70;1.60;;;16.70;84.40;;;;;;5033586;28;20165;-84
2022/09/22 10:33:25;;;;;;;1.60;1.50;;;16.90;86.20;;;;;;5033227;28;20258;-84
2022/09/22 10:36:03;;;;;;;1.90;1.80;;;16.90;84.80;;;;;;5032938;28;20635;-84
2022/09/22 10:38:33;;;;;;;2.97;2.77;;;16.90;86.20;;;;;;5033138;28;20665;-84
2022/09/22 10:41:06;;;;;;;1.60;1.60;;;16.90;86.40;;;;;;5033136;28;20215;-84
2022/09/22 10:43:52;;;;;;;1.70;1.60;;;16.90;87.50;;;;;;5032919;28;20171;-84
2022/09/22 10:46:38;;;;;;;1.93;1.50;;;17.10;88.30;;;;;;5033281;28;20315;-84
2022/09/22 10:49:20;;;;;;;2.10;1.60;;;17.20;89.80;;;;;;5033310;28;20204;-84
2022/09/22 10:51:58;;;;;;;1.80;1.57;;;17.20;86.40;;;;;;5031896;28;20161;-84
2022/09/22 10:54:56;;;;;;;1.50;1.50;;;17.00;86.80;;;;;;5032791;28;20558;-84
2022/09/22 10:57:48;;;;;;;2.80;2.50;;;17.00;87.60;;;;;;5031934;28;20555;-84
2022/09/22 11:00:23;;;;;;;1.83;1.73;;;17.10;87.00;;;;;;5030564;28;20220;-85
2022/09/22 11:02:57;;;;;;;2.57;2.47;;;17.00;87.10;;;;;;5031348;28;20183;-85
2022/09/22 11:14:09;;;;;;;2.93;1.87;;;16.80;87.20;;;;;;5032515;28;20171;-85
2022/09/22 11:16:56;;;;;;;1.47;1.37;;;16.90;87.90;;;;;;5032397;28;20708;-85
2022/09/22 11:19:35;;;;;;;1.60;1.60;;;17.00;87.10;;;;;;5032625;28;20604;-85
2022/09/22 11:22:09;;;;;;;1.53;1.50;;;17.00;86.00;;;;;;5032936;28;20196;-84
2022/09/22 11:25:00;;;;;;;1.47;1.47;;;16.90;87.20;;;;;;5032607;28;20160;-85
2022/09/22 11:27:48;;;;;;;1.60;1.60;;;16.90;88.00;;;;;;5031601;28;20635;-84
2022/09/22 11:30:21;;;;;;;2.20;1.43;;;17.00;87.00;;;;;;5032934;28;20652;-84
2022/09/22 11:32:56;;;;;;;2.70;2.60;;;16.90;87.20;;;;;;5040600;28;20172;-85
2022/09/22 11:35:32;;;;;;;2.37;2.20;;;17.00;87.70;;;;;;5050200;28;20176;-84
2022/09/22 11:38:10;;;;;;;1.70;1.60;;;16.90;87.50;;;;;;5044609;28;20152;-85
2022/09/22 11:41:06;;;;;;;1.40;1.40;;;16.70;86.70;;;;;;5035597;28;20637;-85
2022/09/22 11:43:40;;;;;;;1.60;1.60;;;16.50;86.90;;;;;;5013017;28;20640;-85
2022/09/22 11:46:15;;;;;;;1.70;1.60;;;16.30;87.30;;;;;;5032065;28;20606;-85
2022/09/22 11:48:43;;;;;;;1.23;1.23;;;16.20;87.80;;;;;;5031646;28;20170;-85
2022/09/22 11:51:24;;;;;;;1.30;1.30;;;16.10;88.00;;;;;;5031186;28;20180;-85
2022/09/22 11:54:16;;;;;;;1.77;1.70;;;16.10;88.10;;;;;;5032846;28;20186;-84
2022/09/22 11:56:47;;;;;;;1.50;1.50;;;16.20;89.50;;;;;;5024534;28;20729;-85
2022/09/22 11:59:33;;;;;;;1.60;1.50;;;16.30;89.20;;;;;;5031727;28;20156;-85
2022/09/22 12:02:03;;;;;;;1.83;1.40;;;16.10;87.50;;;;;;5031558;28;20689;-85
2022/09/22 12:04:48;;;;;;;2.57;2.10;;;16.20;88.60;;;;;;5031338;28;20932;-85
2022/09/22 12:07:25;;;;;;;2.17;1.67;;;16.20;88.20;;;;;;5031575;28;20618;-85
2022/09/22 12:10:02;;;;;;;1.90;1.80;;;16.40;87.20;;;;;;5031663;28;20748;-85
2022/09/22 12:12:31;;;;;;;1.30;1.20;;;16.50;87.30;;;;;;5031200;28;20157;-85
2022/09/22 12:15:37;;;;;;;1.47;1.47;;;16.80;87.90;;;;;;5031306;28;20516;-85
2022/09/22 12:18:11;;;;;;;1.40;1.40;;;17.00;87.70;;;;;;5000009;28;20203;-85
2022/09/22 12:20:51;;;;;;;1.63;1.57;;;17.20;86.50;;;;;;5030956;28;20199;-85
2022/09/22 12:23:32;;;;;;;2.17;1.80;;;17.30;89.20;;;;;;5031091;28;20165;-85
2022/09/22 12:26:08;;;;;;;2.07;1.97;;;17.40;88.90;;;;;;5030871;28;20173;-85
2022/09/22 12:28:40;;;;;;;1.70;1.60;;;17.50;87.90;;;;;;5030924;28;20156;-85
2022/09/22 12:31:15;;;;;;;1.50;1.40;;;17.50;87.10;;;;;;5031085;28;20200;-85
2022/09/22 12:33:52;;;;;;;1.53;1.53;;;17.50;86.50;;;;;;5030989;28;20167;-85
2022/09/22 12:36:34;;;;;;;3.10;2.90;;;17.50;86.90;;;;;;5029354;28;20190;-85
2022/09/22 12:39:06;;;;;;;3.13;2.00;;;17.50;87.60;;;;;;5030464;28;20160;-85
2022/09/22 12:41:32;;;;;;;2.47;2.37;;;17.50;88.20;;;;;;5030432;28;20207;-85
2022/09/22 12:44:08;;;;;;;1.47;1.37;;;17.60;87.70;;;;;;5030005;28;20204;-85
2022/09/22 12:46:34;;;;;;;1.47;1.40;;;17.70;86.70;;;;;;5030398;28;20259;-85
2022/09/22 12:49:08;;;;;;;2.20;1.50;;;17.80;85.60;;;;;;5030762;28;20203;-85
2022/09/22 12:51:34;;;;;;;1.60;1.50;;;17.80;87.40;;;;;;5030241;28;20251;-84
2022/09/22 12:54:21;;;;;;;1.77;1.67;;;17.80;88.00;;;;;;5030584;28;20543;-85
2022/09/22 12:57:08;;;;;;;1.33;1.33;;;17.90;86.90;;;;;;5030414;28;20165;-84
2022/09/22 12:59:36;;;;;;;1.60;1.50;;;18.10;84.30;;;;;;5031355;28;20168;-84
2022/09/22 13:02:17;;;;;;;1.60;1.50;;;18.10;84.80;;;;;;5030918;28;20185;-85
2022/09/22 13:04:54;;;;;;;1.63;1.63;;;18.20;82.80;;;;;;5030655;28;20194;-85
2022/09/22 13:07:43;;;;;;;1.43;1.13;;;18.30;82.30;;;;;;5031928;28;20164;-85
2022/09/22 13:10:23;;;;;;;1.30;1.30;;;18.30;82.40;;;;;;5054975;28;20243;-85
2022/09/22 13:13:11;;;;;;;1.10;1.10;;;18.20;81.20;;;;;;5054475;28;20184;-85
2022/09/22 13:15:48;;;;;;;1.20;1.20;;;18.20;81.00;;;;;;5030564;28;20619;-85
2022/09/22 13:18:35;;;;;;;1.53;1.43;;;18.20;81.20;;;;;;5028716;28;20202;-85
2022/09/22 13:21:13;;;;;;;1.60;1.60;;;18.30;81.80;;;;;;5030241;28;20216;-84
2022/09/22 13:23:48;;;;;;;1.87;1.70;;;18.30;81.50;;;;;;5030340;28;20176;-84
2022/09/22 13:26:15;;;;;;;1.40;1.30;;;18.30;80.40;;;;;;5029864;28;20176;-84
2022/09/22 13:28:42;;;;;;;1.43;1.33;;;18.20;79.20;;;;;;5030514;28;20238;-84
2022/09/22 13:31:15;;;;;;;1.70;1.60;;;18.00;80.00;;;;;;5029857;28;20173;-84
2022/09/22 13:33:42;;;;;;;1.63;1.60;;;17.80;80.30;;;;;;5029812;28;20263;-83
2022/09/22 13:36:22;;;;;;;1.70;1.60;;;17.70;81.10;;;;;;5030106;28;20181;-83
2022/09/22 13:38:54;;;;;;;2.10;1.60;;;17.50;81.80;;;;;;5030321;28;20176;-86